Hlavní strana
METAR-TAF:

METAR-TAF

Letiště :

Džíbútí, Džibutsko

zeměpisná šířka: 11-33N, zeměpisná délka: 043-10E, výška: 49 m

Aktuální stav počasí

Zpráva byla vytvořena před 5 hodinami a 41 minutami, v 13:00 UTC
Východní vítr 9 kt
Teplota 29°C
Vlhkost vzduchu 70%
Tlak 1013 hPa
Viditelnost 10 km a více
Polojasno ve výšce 2300 ft

METAR: HDAM 181300Z 09009KT 9999 SCT023 29/23 Q1013

Čas: 21:41 (18:41 UTC)

Předpověď počasí

Zpráva byla vytvořena před 1 hodinou a 41 minutami, v 17:00 UTC
Předpověď platná od 18 v 18 UTC do 19 v 18 UTC
vítr z různých směrů 3 kt
Viditelnost 10 km a více
Polojasno ve výšce 2000 ft
Změna
od 19 v 00 UTC do 19 v 06 UTC
Severní vítr kt
Polojasno ve výšce 2000 ft
Změna
od 19 v 06 UTC do 19 v 12 UTC
Východní vítr 10 kt
Polojasno ve výšce 2000 ft
Skoro jasno ve výšce 2300 ft

TAF: HDAM 181700Z 1818/1918 VRB03KT 9999 SCT020 BECMG 1900/1906 00000KT SCT020 BECMG 1906/1912 10010KT SCT020 FEW023

Stav a předpovědi počasí z více než 4 000 letišť (zprávy METAR a TAF).

Červené a žluté tečky na mapě představují dostupné meteorologické stanice.

Když kurzor umístíte na tečku, zobrazí se název stanice.

Pak kliknutím zobrazíte stav a předpověď počasí.

Chcete-li změnit mapu, kliknutím na zelené tlačítko se znaménkem +mapu přiblížíte, kliknutím na zelené tlačítko se znaménkem – mapu oddálíte a kliknutím na zelené šipky přejdete na sousední mapy.


METAR-TAF: